Time;durP1;ratioP1;P1;durP2;ratioP2;P2;SDS_P1;SDS_P2;PMS_P1;PMS_P2;Temp;Humidity;BMP_temperature;BMP_pressure;BME280_temperature;BME280_humidity;BME280_pressure;Samples;Min_cycle;Max_cycle;Signal;HPM_P1;HPM_P2
2021/10/18 00:02:21;;;;;;;7.30;5.37;;;;;;;9.29;59.39;100570.31;4407595;32;35210;-48
2021/10/18 00:04:49;;;;;;;9.35;4.82;;;;;;;9.22;59.82;100562.37;4421494;32;33582;-49
2021/10/18 00:07:16;;;;;;;8.43;4.95;;;;;;;9.37;59.39;100554.84;4421330;32;33711;-48
2021/10/18 00:09:43;;;;;;;9.95;4.53;;;;;;;9.47;59.08;100569.72;4421248;32;34985;-48
2021/10/18 00:12:12;;;;;;;8.73;5.07;;;;;;;9.53;59.35;100565.50;4421306;32;34484;-49
2021/10/18 00:14:39;;;;;;;9.32;4.97;;;;;;;9.53;59.47;100568.09;4421316;32;33492;-50
2021/10/18 00:17:07;;;;;;;9.25;5.30;;;;;;;9.52;59.63;100570.69;4421233;32;34534;-48
2021/10/18 00:19:34;;;;;;;8.82;4.97;;;;;;;9.45;60.10;100566.25;4407763;32;35640;-47
2021/10/18 00:22:02;;;;;;;7.00;4.50;;;;;;;9.53;59.92;100575.87;4421138;32;34872;-48
2021/10/18 00:24:29;;;;;;;10.93;5.55;;;;;;;9.52;59.87;100568.97;4421147;32;33719;-48
2021/10/18 00:26:57;;;;;;;10.65;6.07;;;;;;;9.59;59.88;100564.72;4422961;32;33789;-49
2021/10/18 00:29:24;;;;;;;8.77;5.28;;;;;;;9.71;59.59;100558.84;4423661;32;34753;-48
2021/10/18 00:31:52;;;;;;;11.98;5.45;;;;;;;9.75;59.52;100568.44;4423690;32;35553;-49
2021/10/18 00:34:19;;;;;;;10.07;5.47;;;;;;;9.93;59.01;100566.13;4423460;32;33753;-48
2021/10/18 00:36:47;;;;;;;8.18;4.70;;;;;;;9.79;59.41;100563.34;4423444;32;33813;-48
2021/10/18 00:39:14;;;;;;;10.25;5.50;;;;;;;9.86;59.57;100561.69;4423199;32;34703;-48
2021/10/18 00:41:42;;;;;;;7.10;4.93;;;;;;;9.87;59.84;100564.28;4423385;32;34213;-48
2021/10/18 00:44:09;;;;;;;9.52;5.15;;;;;;;9.93;59.63;100567.00;4423169;32;34554;-48
2021/10/18 00:46:37;;;;;;;9.20;5.30;;;;;;;9.99;59.91;100563.59;4423331;32;33879;-48
2021/10/18 00:49:05;;;;;;;7.40;4.95;;;;;;;9.84;60.55;100566.00;4423010;32;34807;-47
2021/10/18 00:51:32;;;;;;;12.07;5.80;;;;;;;9.92;60.17;100565.25;4423226;32;35043;-49
2021/10/18 00:54:00;;;;;;;10.00;5.18;;;;;;;9.95;60.26;100564.41;4423544;32;34725;-47
2021/10/18 00:56:28;;;;;;;8.50;4.70;;;;;;;9.96;60.25;100558.38;4423187;32;34570;-48
2021/10/18 00:58:58;;;;;;;8.82;5.18;;;;;;;10.01;60.22;100562.75;4409265;32;35881;-47
2021/10/18 01:01:26;;;;;;;8.55;5.25;;;;;;;10.22;59.63;100561.38;4423118;32;34472;-49
2021/10/18 01:03:55;;;;;;;8.45;4.97;;;;;;;10.08;60.09;100556.81;4423090;32;34142;-48
2021/10/18 01:06:23;;;;;;;8.60;4.82;;;;;;;10.17;60.04;100562.16;4423130;32;33843;-48
2021/10/18 01:08:50;;;;;;;10.70;5.35;;;;;;;9.95;60.87;100567.00;4423066;32;34604;-48
2021/10/18 01:11:18;;;;;;;8.38;5.18;;;;;;;10.28;59.73;100564.03;4409446;32;34304;-49
2021/10/18 01:13:45;;;;;;;9.77;5.68;;;;;;;10.25;60.09;100563.97;4423063;32;34334;-48
2021/10/18 01:16:14;;;;;;;8.68;5.18;;;;;;;10.24;60.31;100557.94;4409256;32;34077;-48
2021/10/18 01:18:42;;;;;;;8.10;5.22;;;;;;;10.33;59.91;100562.37;4422994;32;34681;-48
2021/10/18 01:21:10;;;;;;;11.07;5.75;;;;;;;10.46;59.65;100556.47;4423045;32;34007;-48
2021/10/18 01:23:37;;;;;;;8.82;5.12;;;;;;;10.36;60.06;100557.22;4423080;32;33534;-48
2021/10/18 01:26:05;;;;;;;8.35;5.40;;;;;;;10.39;60.35;100559.84;4409145;32;33946;-48
2021/10/18 01:28:32;;;;;;;8.25;5.12;;;;;;;10.50;60.00;100550.44;4422883;32;35519;-47
2021/10/18 01:31:00;;;;;;;9.68;5.35;;;;;;;10.62;59.48;100555.78;4422886;32;35184;-48
2021/10/18 01:33:27;;;;;;;8.13;4.82;;;;;;;10.44;60.27;100555.56;4423004;32;33593;-49
2021/10/18 01:35:55;;;;;;;7.47;5.00;;;;;;;10.67;59.38;100559.31;4423355;32;34159;-48
2021/10/18 01:38:22;;;;;;;8.93;5.20;;;;;;;10.70;59.74;100559.34;4422265;32;34645;-48
2021/10/18 01:40:50;;;;;;;7.90;4.78;;;;;;;10.68;60.08;100555.84;4409205;32;34187;-48
2021/10/18 01:43:17;;;;;;;7.93;4.93;;;;;;;10.63;60.03;100553.19;4422995;32;33783;-48
2021/10/18 01:45:45;;;;;;;8.15;5.60;;;;;;;10.66;59.96;100557.56;4422791;32;33900;-48
2021/10/18 01:48:13;;;;;;;7.47;5.37;;;;;;;10.68;60.06;100561.06;4422680;32;35376;-48
2021/10/18 01:50:40;;;;;;;10.52;5.03;;;;;;;10.81;59.81;100558.63;4409020;32;34553;-48
2021/10/18 01:53:08;;;;;;;7.43;5.20;;;;;;;10.83;59.57;100561.22;4423222;32;33749;-50
2021/10/18 01:55:36;;;;;;;7.35;4.80;;;;;;;10.78;59.90;100557.72;4422828;32;34727;-47
2021/10/18 01:58:03;;;;;;;9.48;4.97;;;;;;;10.84;59.76;100553.44;4423023;32;35224;-48
2021/10/18 02:00:30;;;;;;;8.90;4.57;;;;;;;10.87;59.75;100553.47;4422885;32;35150;-48
2021/10/18 02:02:59;;;;;;;7.28;4.53;;;;;;;10.82;59.92;100552.53;4409132;32;34386;-49
2021/10/18 02:05:27;;;;;;;5.90;4.55;;;;;;;10.75;60.25;100536.84;4409124;32;33453;-47
2021/10/18 02:07:54;;;;;;;8.73;5.35;;;;;;;10.90;59.79;100539.63;4422704;32;34755;-48
2021/10/18 02:10:22;;;;;;;8.80;4.55;;;;;;;10.83;60.14;100546.50;4422756;32;35332;-50
2021/10/18 02:12:51;;;;;;;6.72;4.47;;;;;;;11.01;60.06;100540.59;4422783;32;33813;-48
2021/10/18 02:15:19;;;;;;;8.10;5.12;;;;;;;10.83;60.64;100543.03;4422788;32;34521;-48
2021/10/18 02:17:46;;;;;;;8.90;5.28;;;;;;;11.01;60.25;100543.19;4422674;32;34601;-48
2021/10/18 02:20:15;;;;;;;9.23;5.12;;;;;;;10.86;60.78;100535.25;4408865;32;34858;-48
2021/10/18 02:22:42;;;;;;;7.85;4.60;;;;;;;11.07;60.20;100538.06;4422674;32;33741;-48
2021/10/18 02:25:13;;;;;;;7.28;4.97;;;;;;;11.06;60.10;100546.72;4422692;32;34823;-48
2021/10/18 02:27:41;;;;;;;11.05;4.75;;;;;;;10.95;60.42;100545.75;4422707;32;34978;-48
2021/10/18 02:30:10;;;;;;;8.65;5.12;;;;;;;10.90;60.65;100550.03;4422689;32;35130;-48
2021/10/18 02:32:38;;;;;;;7.65;4.78;;;;;;;10.94;60.64;100545.72;4422867;32;33511;-48
2021/10/18 02:35:07;;;;;;;6.75;5.15;;;;;;;11.09;60.14;100548.47;4422548;32;33811;-48
2021/10/18 02:37:35;;;;;;;7.30;4.78;;;;;;;11.02;60.25;100547.56;4408701;32;35118;-49
2021/10/18 02:40:03;;;;;;;10.55;5.47;;;;;;;11.17;60.11;100554.66;4422529;32;34175;-48
2021/10/18 02:42:31;;;;;;;7.47;4.75;;;;;;;11.13;60.41;100551.12;4422421;32;33671;-49
2021/10/18 02:44:59;;;;;;;8.65;5.50;;;;;;;11.13;60.42;100556.31;4422530;32;34072;-48
2021/10/18 02:47:26;;;;;;;9.80;5.40;;;;;;;11.21;60.29;100544.25;4422338;32;34669;-48
2021/10/18 02:49:54;;;;;;;8.02;4.82;;;;;;;11.36;59.79;100546.97;4421260;32;34362;-49
2021/10/18 02:52:22;;;;;;;9.30;5.10;;;;;;;11.33;59.94;100544.38;4422410;32;34512;-48
2021/10/18 02:54:49;;;;;;;6.62;4.80;;;;;;;11.29;59.95;100546.94;4422349;32;34282;-49
2021/10/18 02:57:17;;;;;;;7.90;5.07;;;;;;;11.20;60.35;100542.50;4422331;32;34840;-48
2021/10/18 02:59:44;;;;;;;7.85;5.32;;;;;;;11.15;60.47;100541.59;4422557;32;34307;-50
2021/10/18 03:02:12;;;;;;;11.82;5.40;;;;;;;11.18;60.40;100548.56;4422583;32;33679;-47
2021/10/18 03:04:39;;;;;;;7.65;5.47;;;;;;;11.22;60.45;100551.19;4422256;32;34823;-48
2021/10/18 03:07:07;;;;;;;9.85;5.32;;;;;;;11.34;60.07;100546.09;4422094;32;34919;-48
2021/10/18 03:09:35;;;;;;;8.00;5.57;;;;;;;11.33;60.36;100546.09;4422273;32;34329;-48
2021/10/18 03:12:02;;;;;;;8.93;5.47;;;;;;;11.24;60.63;100544.31;4422219;32;34245;-48
2021/10/18 03:14:30;;;;;;;9.18;5.90;;;;;;;11.35;60.22;100547.88;4422238;32;34760;-49
2021/10/18 03:16:57;;;;;;;10.60;5.30;;;;;;;11.19;60.86;100546.00;4422130;32;34763;-48
2021/10/18 03:19:25;;;;;;;9.63;5.40;;;;;;;11.33;60.27;100549.59;4422046;32;35153;-48
2021/10/18 03:21:52;;;;;;;8.93;5.32;;;;;;;11.32;60.20;100555.63;4422117;32;34085;-48
2021/10/18 03:24:20;;;;;;;8.85;5.28;;;;;;;11.32;60.43;100550.44;4408309;32;33494;-48
2021/10/18 03:26:48;;;;;;;10.63;5.82;;;;;;;11.37;60.37;100553.94;4421970;32;34832;-48
2021/10/18 03:29:15;;;;;;;12.82;6.10;;;;;;;11.24;60.83;100552.13;4422212;32;34424;-48
2021/10/18 03:31:42;;;;;;;11.70;5.60;;;;;;;11.26;60.72;100560.81;4421953;32;33523;-48
2021/10/18 03:34:10;;;;;;;9.65;5.97;;;;;;;11.44;59.91;100560.94;4421984;32;33663;-48
2021/10/18 03:36:37;;;;;;;12.48;7.37;;;;;;;11.42;60.05;100560.06;4421795;32;34706;-49
2021/10/18 03:39:05;;;;;;;12.35;6.53;;;;;;;11.29;60.40;100559.97;4422265;32;35197;-50
2021/10/18 03:41:33;;;;;;;10.95;6.85;;;;;;;11.30;60.45;100566.91;4421852;32;33600;-48
2021/10/18 03:44:01;;;;;;;13.80;7.90;;;;;;;11.25;60.49;100568.59;4421920;32;33621;-48
2021/10/18 03:46:28;;;;;;;11.80;6.37;;;;;;;11.17;60.71;100563.31;4422013;32;34668;-48
2021/10/18 03:48:56;;;;;;;14.48;6.43;;;;;;;11.24;60.43;100566.84;4405139;32;34189;-48
2021/10/18 03:51:24;;;;;;;16.00;6.45;;;;;;;11.36;59.91;100567.81;4406441;32;34426;-48
2021/10/18 03:53:52;;;;;;;10.80;6.53;;;;;;;11.41;59.86;100568.72;4405299;32;33838;-48
2021/10/18 03:56:20;;;;;;;13.13;6.85;;;;;;;11.46;59.79;100566.16;4406403;32;34792;-48
2021/10/18 03:58:47;;;;;;;13.10;6.15;;;;;;;11.30;60.17;100567.78;4406321;32;34170;-48
2021/10/18 04:01:14;;;;;;;11.73;6.45;;;;;;;11.16;60.70;100572.00;4407343;32;33848;-48
2021/10/18 04:03:42;;;;;;;13.38;6.80;;;;;;;11.33;60.18;100573.03;4407144;32;33735;-48
2021/10/18 04:06:10;;;;;;;13.55;7.05;;;;;;;11.29;60.28;100575.59;4408336;32;35310;-49
2021/10/18 04:08:37;;;;;;;10.75;6.32;;;;;;;11.30;60.24;100565.16;4408415;32;35086;-48
2021/10/18 04:11:05;;;;;;;12.60;6.75;;;;;;;11.33;60.22;100567.81;4408345;32;34502;-48
2021/10/18 04:13:32;;;;;;;13.52;6.80;;;;;;;11.28;60.33;100566.91;4408533;32;34556;-48
2021/10/18 04:16:00;;;;;;;12.15;6.32;;;;;;;11.24;60.49;100567.75;4408306;32;34955;-48
2021/10/18 04:18:27;;;;;;;11.43;6.60;;;;;;;11.37;59.75;100572.19;4408165;32;34799;-48
2021/10/18 04:20:55;;;;;;;11.50;6.12;;;;;;;11.27;60.17;100574.69;4408263;32;34085;-48
2021/10/18 04:23:23;;;;;;;9.80;6.18;;;;;;;11.35;60.14;100571.31;4408121;32;34782;-48
2021/10/18 04:25:51;;;;;;;10.50;6.43;;;;;;;11.29;60.40;100573.84;4408198;32;34767;-48
2021/10/18 04:28:19;;;;;;;10.52;6.03;;;;;;;11.30;60.45;100566.91;4408234;32;34524;-47
2021/10/18 04:30:46;;;;;;;9.38;6.57;;;;;;;11.33;60.30;100579.97;4408158;32;33569;-48
2021/10/18 04:33:16;;;;;;;10.98;6.68;;;;;;;11.24;60.55;100580.75;4408180;32;34359;-48
2021/10/18 04:35:43;;;;;;;12.70;7.15;;;;;;;11.13;60.83;100582.38;4408083;32;34845;-49
2021/10/18 04:38:10;;;;;;;8.15;5.90;;;;;;;11.11;60.83;100583.19;4408061;32;34975;-48
2021/10/18 04:40:38;;;;;;;14.02;6.97;;;;;;;11.17;60.64;100578.06;4408141;32;34284;-48
2021/10/18 04:43:06;;;;;;;13.10;6.85;;;;;;;11.10;60.89;100586.69;4408024;32;34491;-48
2021/10/18 04:45:33;;;;;;;11.70;7.32;;;;;;;11.17;60.58;100584.12;4408208;32;34867;-48
2021/10/18 04:48:03;;;;;;;11.48;6.90;;;;;;;11.13;60.64;100592.78;4412847;32;35212;-47
2021/10/18 04:50:30;;;;;;;11.45;6.53;;;;;;;11.14;60.66;100589.34;4423603;32;33924;-48
2021/10/18 04:52:58;;;;;;;10.63;7.12;;;;;;;11.14;60.66;100576.31;4409747;32;33684;-48
2021/10/18 04:55:26;;;;;;;9.82;6.40;;;;;;;11.35;59.96;100579.13;4423147;32;35435;-49
2021/10/18 04:58:01;;;;;;;12.93;6.40;;;;;;;11.31;60.12;100579.06;4423509;32;35176;-48
2021/10/18 05:00:30;;;;;;;10.48;6.55;;;;;;;11.37;59.99;100581.72;4423267;32;33480;-48
2021/10/18 05:02:58;;;;;;;8.77;6.20;;;;;;;11.32;60.13;100586.88;4423207;32;34013;-48
2021/10/18 05:05:25;;;;;;;10.80;6.95;;;;;;;11.16;60.56;100586.72;4423346;32;34972;-48
2021/10/18 05:08:03;;;;;;;13.95;6.65;;;;;;;11.19;60.53;100590.25;4423167;32;34278;-49
2021/10/18 05:10:32;;;;;;;13.75;7.72;;;;;;;11.16;60.47;100586.72;4423305;32;33535;-48
2021/10/18 05:13:00;;;;;;;12.60;7.70;;;;;;;11.04;60.71;100597.00;4422448;32;33873;-48
2021/10/18 05:15:28;;;;;;;13.32;7.35;;;;;;;10.73;61.61;100604.50;4423127;32;35812;-48
2021/10/18 05:17:56;;;;;;;13.23;8.05;;;;;;;10.94;61.00;100600.38;4422911;32;35088;-48
2021/10/18 05:20:23;;;;;;;12.77;7.93;;;;;;;10.94;60.99;100605.56;4423154;32;34006;-47
2021/10/18 05:22:51;;;;;;;15.32;7.65;;;;;;;11.05;60.74;100601.38;4422975;32;33800;-48
2021/10/18 05:25:18;;;;;;;13.25;6.80;;;;;;;10.92;61.11;100613.37;4422877;32;34647;-48
2021/10/18 05:27:46;;;;;;;16.40;7.55;;;;;;;10.98;60.97;100616.06;4423175;32;34220;-49
2021/10/18 05:30:16;;;;;;;16.27;8.10;;;;;;;11.10;60.61;100617.94;4423168;32;33641;-48
2021/10/18 05:32:43;;;;;;;13.70;8.30;;;;;;;11.09;60.67;100621.38;4422956;32;33847;-49
2021/10/18 05:35:11;;;;;;;13.77;7.50;;;;;;;11.12;60.55;100619.69;4422089;32;35695;-48
2021/10/18 05:37:43;;;;;;;14.70;6.87;;;;;;;11.24;61.04;100625.03;4421210;32;34192;-48
2021/10/18 05:40:12;;;;;;;14.27;7.10;;;;;;;11.18;60.74;100627.56;4421017;32;33730;-48
2021/10/18 05:42:39;;;;;;;15.90;7.47;;;;;;;11.20;60.73;100636.25;4420953;32;34652;-48
2021/10/18 05:45:08;;;;;;;15.25;7.12;;;;;;;11.21;60.71;100630.19;4420823;32;35415;-48
2021/10/18 05:47:50;;;;;;;12.50;7.12;;;;;;;11.43;60.16;100639.09;4421339;32;35178;-49
2021/10/18 05:50:17;;;;;;;13.48;6.47;;;;;;;11.51;60.13;100640.91;4421348;32;33565;-48
2021/10/18 05:52:45;;;;;;;13.90;6.55;;;;;;;11.54;60.32;100640.06;4420986;32;34473;-48
2021/10/18 05:55:13;;;;;;;12.23;6.40;;;;;;;11.61;60.33;100648.78;4420928;32;34661;-49
2021/10/18 05:57:55;;;;;;;12.75;5.95;;;;;;;11.68;60.42;100651.50;4420733;32;34936;-48
2021/10/18 06:00:24;;;;;;;11.00;5.10;;;;;;;11.64;60.80;100651.44;4421272;32;34190;-48
2021/10/18 06:02:52;;;;;;;11.05;6.47;;;;;;;11.63;60.74;100654.88;4420857;32;33675;-48
2021/10/18 06:05:20;;;;;;;11.32;6.20;;;;;;;11.73;60.62;100659.38;4421677;32;35585;-48
2021/10/18 06:07:48;;;;;;;9.50;6.10;;;;;;;11.74;60.55;100658.50;4422779;32;34467;-48
2021/10/18 06:10:16;;;;;;;17.67;6.50;;;;;;;11.81;60.43;100662.91;4422342;32;33576;-48
2021/10/18 06:12:44;;;;;;;10.27;6.65;;;;;;;11.96;61.94;100663.03;4422618;32;33842;-48
2021/10/18 06:15:12;;;;;;;18.25;8.45;;;;;;;11.97;61.26;100676.09;4422869;32;34688;-48
2021/10/18 06:17:41;;;;;;;21.02;9.02;;;;;;;12.10;60.75;100672.69;4422828;32;34303;-48
2021/10/18 06:20:09;;;;;;;19.23;9.70;;;;;;;12.06;59.96;100683.97;4422792;32;33641;-50
2021/10/18 06:22:37;;;;;;;19.67;9.88;;;;;;;12.01;59.82;100674.37;4422831;32;33861;-50
2021/10/18 06:25:06;;;;;;;19.40;10.00;;;;;;;12.03;59.86;100678.72;4408768;32;34394;-48
2021/10/18 06:27:33;;;;;;;19.30;10.27;;;;;;;12.03;59.52;100685.66;4422704;32;35020;-48
2021/10/18 06:30:01;;;;;;;17.25;9.30;;;;;;;12.12;59.22;100697.06;4422801;32;33629;-48
2021/10/18 06:32:29;;;;;;;21.17;10.05;;;;;;;12.23;58.95;100694.53;4422806;32;33907;-49
2021/10/18 06:34:56;;;;;;;30.23;11.35;;;;;;;12.19;58.94;100704.06;4422963;32;34560;-48
2021/10/18 06:37:24;;;;;;;19.17;9.77;;;;;;;12.34;58.57;100705.91;4422610;32;34243;-48
2021/10/18 06:39:51;;;;;;;16.02;9.20;;;;;;;12.44;58.24;100702.50;4422629;32;34542;-48
2021/10/18 06:42:19;;;;;;;18.65;8.68;;;;;;;12.22;59.12;100704.09;4422658;32;34916;-49
2021/10/18 06:44:46;;;;;;;14.73;9.38;;;;;;;12.33;59.20;100712.00;4422516;32;34704;-48
2021/10/18 06:47:14;;;;;;;15.40;8.38;;;;;;;12.38;58.92;100709.44;4422570;32;35323;-48
2021/10/18 06:49:41;;;;;;;17.70;9.77;;;;;;;12.59;58.88;100710.44;4422612;32;34472;-48
2021/10/18 06:52:09;;;;;;;14.00;7.60;;;;;;;12.62;58.88;100720.03;4422382;32;34795;-49
2021/10/18 06:54:39;;;;;;;19.75;8.93;;;;;;;12.55;60.33;100719.09;4422305;32;34739;-48
2021/10/18 06:57:07;;;;;;;17.50;9.27;;;;;;;12.78;58.94;100720.12;4408912;32;34482;-48
2021/10/18 06:59:34;;;;;;;16.33;9.02;;;;;;;13.16;57.28;100719.44;4422788;32;34324;-48
2021/10/18 07:02:02;;;;;;;19.50;9.75;;;;;;;13.23;56.96;100716.88;4408658;32;33694;-47
2021/10/18 07:04:30;;;;;;;17.75;9.35;;;;;;;13.29;56.86;100716.88;4420539;32;35349;-46
2021/10/18 07:06:57;;;;;;;18.17;9.65;;;;;;;13.37;56.52;100714.28;4422058;32;34323;-46
2021/10/18 07:09:27;;;;;;;19.35;10.07;;;;;;;13.35;56.29;100723.88;4408379;32;34038;-46
2021/10/18 07:11:55;;;;;;;18.95;9.93;;;;;;;13.45;56.09;100730.88;4422240;32;33680;-46
2021/10/18 07:14:23;;;;;;;17.42;9.88;;;;;;;13.39;56.35;100721.28;4422323;32;35769;-49
2021/10/18 07:16:51;;;;;;;16.30;10.23;;;;;;;13.41;56.60;100719.53;4408332;32;34965;-47
2021/10/18 07:19:18;;;;;;;17.37;11.35;;;;;;;13.50;56.18;100721.31;4422009;32;33446;-49
2021/10/18 07:21:46;;;;;;;18.90;10.65;;;;;;;13.66;55.48;100728.31;4408539;32;34119;-48
2021/10/18 07:24:17;;;;;;;26.92;12.23;;;;;;;13.69;55.47;100733.56;4421846;32;34595;-48
2021/10/18 07:26:47;;;;;;;17.35;11.93;;;;;;;13.78;53.80;100733.56;4421953;32;34920;-46
2021/10/18 07:29:21;;;;;;;18.23;12.48;;;;;;;13.85;54.15;100730.09;4408546;32;34177;-47
2021/10/18 07:31:48;;;;;;;21.05;11.10;;;;;;;13.84;54.24;100728.34;4408482;32;33734;-48
2021/10/18 07:34:18;;;;;;;18.23;10.70;;;;;;;13.81;54.29;100733.56;4421836;32;35604;-48
2021/10/18 07:36:49;;;;;;;17.42;9.50;;;;;;;13.85;54.04;100729.22;4409549;32;34188;-46
2021/10/18 07:39:19;;;;;;;18.20;9.52;;;;;;;13.99;53.67;100725.75;4409960;32;33613;-46
2021/10/18 07:41:49;;;;;;;13.13;9.30;;;;;;;14.07;53.76;100731.81;4423814;32;33953;-46
2021/10/18 07:44:17;;;;;;;15.38;8.25;;;;;;;14.27;53.13;100724.00;4423735;32;35617;-48
2021/10/18 07:46:45;;;;;;;14.63;8.38;;;;;;;14.44;51.97;100737.09;4423578;32;34454;-45
2021/10/18 07:49:13;;;;;;;13.98;8.00;;;;;;;14.41;52.08;100744.94;4409788;32;33737;-46
2021/10/18 07:51:41;;;;;;;13.25;9.27;;;;;;;14.37;52.42;100753.69;4423780;32;33986;-46
2021/10/18 07:54:08;;;;;;;17.52;9.70;;;;;;;14.53;51.73;100752.78;4423530;32;34637;-48
2021/10/18 07:56:36;;;;;;;19.65;11.82;;;;;;;14.71;51.81;100755.41;4423722;32;34509;-46
2021/10/18 07:59:03;;;;;;;19.35;9.45;;;;;;;14.79;51.45;100756.22;4410066;32;33611;-45
2021/10/18 08:01:31;;;;;;;18.10;9.35;;;;;;;14.83;51.29;100750.13;4423618;32;33926;-45
2021/10/18 08:03:59;;;;;;;15.07;8.45;;;;;;;14.95;50.46;100754.47;4422987;32;35717;-44
2021/10/18 08:06:26;;;;;;;8.77;6.05;;;;;;;14.67;53.20;100754.50;4423154;32;34884;-46
2021/10/18 08:08:55;;;;;;;12.90;5.70;;;;;;;14.82;49.07;100751.00;4423614;32;34511;-47
2021/10/18 08:11:23;;;;;;;9.23;5.47;;;;;;;15.01;49.40;100757.06;4423508;32;33946;-47
2021/10/18 08:13:51;;;;;;;10.25;5.10;;;;;;;15.07;48.82;100752.66;4423460;32;34880;-46
2021/10/18 08:16:18;;;;;;;10.13;5.07;;;;;;;15.04;49.15;100757.06;4423453;32;34132;-46
2021/10/18 08:18:46;;;;;;;9.45;5.12;;;;;;;15.46;48.09;100756.91;4423590;32;33607;-46
2021/10/18 08:21:13;;;;;;;12.32;4.78;;;;;;;15.38;47.67;100756.91;4423451;32;33796;-49
2021/10/18 08:23:42;;;;;;;7.00;4.55;;;;;;;15.47;46.66;100753.41;4423576;32;34791;-47
2021/10/18 08:26:09;;;;;;;8.48;4.93;;;;;;;15.72;46.80;100755.00;4409708;32;34386;-46
2021/10/18 08:28:37;;;;;;;9.90;5.53;;;;;;;15.79;47.20;100758.47;4423584;32;34495;-46
2021/10/18 08:31:13;;;;;;;8.45;4.75;;;;;;;15.92;46.75;100755.78;4398845;32;33700;-46
2021/10/18 08:33:41;;;;;;;10.70;6.15;;;;;;;15.76;45.30;100761.97;4423389;32;34693;-46
2021/10/18 08:36:08;;;;;;;11.02;5.60;;;;;;;15.57;45.92;100769.06;4423232;32;35048;-46
2021/10/18 08:38:46;;;;;;;8.23;5.22;;;;;;;15.78;45.94;100768.09;4423690;32;33469;-48
2021/10/18 08:41:38;;;;;;;12.18;5.20;;;;;;;15.98;45.61;100757.47;4423367;32;33910;-47
2021/10/18 08:44:16;;;;;;;7.35;4.87;;;;;;;15.96;45.06;100759.22;4423105;32;35621;-46
2021/10/18 08:46:48;;;;;;;7.60;4.60;;;;;;;16.02;44.44;100759.22;4422652;32;34304;-46
2021/10/18 08:49:21;;;;;;;7.40;5.07;;;;;;;15.81;45.86;100768.06;4423175;32;34617;-45
2021/10/18 08:51:48;;;;;;;;;;;;;;;15.83;45.08;100762.84;4409816;32;33716;-45
2021/10/18 08:54:16;;;;;;;8.43;4.95;;;;;;;16.03;44.76;100760.94;4409469;32;35803;-48
2021/10/18 08:56:56;;;;;;;8.57;5.05;;;;;;;16.04;45.28;100757.44;4423398;32;35247;-45
2021/10/18 08:59:24;;;;;;;8.63;4.65;;;;;;;16.19;44.61;100755.56;4423229;32;34171;-45
2021/10/18 09:01:54;;;;;;;11.00;5.12;;;;;;;16.07;44.11;100767.88;4423282;32;34040;-46
2021/10/18 09:04:25;;;;;;;10.02;5.20;;;;;;;15.76;44.87;100761.12;4423084;32;34712;-45
2021/10/18 09:06:57;;;;;;;7.45;4.55;;;;;;;15.95;45.20;100765.38;4423148;32;34504;-46
2021/10/18 09:09:26;;;;;;;10.20;5.47;;;;;;;16.15;45.06;100766.97;4423127;32;33547;-46
2021/10/18 09:12:00;;;;;;;9.25;5.25;;;;;;;16.14;43.62;100770.47;4409422;32;34440;-46
2021/10/18 09:14:28;;;;;;;6.47;4.90;;;;;;;16.01;44.80;100767.94;4423076;32;34717;-45
2021/10/18 09:17:00;;;;;;;12.07;6.68;;;;;;;15.86;45.49;100761.03;4423133;32;34303;-46
2021/10/18 09:19:28;;;;;;;9.52;5.62;;;;;;;16.08;44.63;100765.28;4422989;32;33782;-48
2021/10/18 09:22:01;;;;;;;9.18;4.87;;;;;;;16.02;44.87;100764.44;4422993;32;33979;-49
2021/10/18 09:24:28;;;;;;;9.82;5.00;;;;;;;15.89;44.53;100762.78;4423530;32;34983;-48
2021/10/18 09:27:01;;;;;;;9.75;4.95;;;;;;;16.06;43.69;100763.53;4423115;32;34408;-48
2021/10/18 09:29:39;;;;;;;8.43;4.55;;;;;;;16.04;44.57;100773.19;4423501;32;33769;-50
2021/10/18 09:32:07;;;;;;;11.93;4.80;;;;;;;16.23;43.39;100765.16;4423166;32;33850;-47
2021/10/18 09:34:35;;;;;;;7.28;4.65;;;;;;;16.28;44.09;100760.72;4423124;32;34584;-47
2021/10/18 09:37:11;;;;;;;8.88;5.30;;;;;;;16.06;44.54;100771.41;4422983;32;34638;-47
2021/10/18 09:39:48;;;;;;;12.77;5.07;;;;;;;16.15;43.15;100760.84;4423221;32;33536;-47
2021/10/18 09:42:17;;;;;;;8.10;4.30;;;;;;;15.86;43.23;100768.03;4423087;32;34645;-48
2021/10/18 10:51:43;;;;;;;10.32;5.72;;;;;;;16.38;40.76;100747.53;4422664;32;33678;-47
2021/10/18 10:54:11;;;;;;;9.75;5.30;;;;;;;16.41;40.28;100742.25;4422761;32;35850;-47
2021/10/18 10:56:45;;;;;;;7.57;5.57;;;;;;;16.34;40.75;100740.56;4409001;32;34455;-47
2021/10/18 10:59:31;;;;;;;10.30;5.93;;;;;;;16.16;40.49;100747.69;4422812;32;33670;-47
2021/10/18 11:02:05;;;;;;;9.48;4.90;;;;;;;16.01;41.56;100746.97;4422577;32;33782;-50
2021/10/18 11:04:33;;;;;;;8.00;4.50;;;;;;;16.23;39.70;100746.78;4422781;32;35808;-47
2021/10/18 11:07:03;;;;;;;8.68;5.40;;;;;;;16.28;39.60;100741.50;4422314;32;34753;-48
2021/10/18 11:09:39;;;;;;;11.48;6.10;;;;;;;16.35;40.08;100737.94;4422017;32;33457;-47
2021/10/18 11:12:17;;;;;;;12.27;6.35;;;;;;;16.18;41.79;100739.84;4422060;32;34206;-47
2021/10/18 11:15:07;;;;;;;8.75;5.57;;;;;;;16.18;41.35;100739.84;4422291;32;35524;-48
2021/10/18 11:17:38;;;;;;;11.15;5.90;;;;;;;16.36;40.86;100739.66;4422332;32;35134;-47
2021/10/18 11:20:09;;;;;;;8.60;5.95;;;;;;;16.26;40.20;100732.75;4422291;32;33518;-48
2021/10/18 11:22:42;;;;;;;14.40;7.45;;;;;;;16.36;41.16;100734.41;4408540;32;34824;-47
2021/10/18 11:25:16;;;;;;;9.60;6.43;;;;;;;16.55;40.71;100729.88;4422247;32;35751;-48
2021/10/18 11:27:50;;;;;;;10.65;6.12;;;;;;;16.29;41.04;100735.34;4422138;32;34261;-47
2021/10/18 11:30:19;;;;;;;11.63;6.90;;;;;;;16.26;41.09;100738.00;4422269;32;34481;-47
2021/10/18 11:32:59;;;;;;;11.80;6.85;;;;;;;16.32;41.00;100732.72;4422076;32;34736;-48
2021/10/18 11:35:28;;;;;;;14.95;7.55;;;;;;;16.47;40.42;100727.31;4422228;32;34783;-47
2021/10/18 11:37:58;;;;;;;15.10;8.63;;;;;;;16.64;41.24;100730.66;4421957;32;35233;-47
2021/10/18 11:40:35;;;;;;;12.85;8.30;;;;;;;16.18;42.57;100724.09;4408395;32;33736;-48
2021/10/18 11:43:08;;;;;;;12.48;8.20;;;;;;;16.33;41.95;100733.59;4422005;32;33960;-48
2021/10/18 11:45:38;;;;;;;14.68;8.27;;;;;;;16.51;42.14;100722.91;4408000;32;34690;-48
2021/10/18 11:48:14;;;;;;;12.37;7.72;;;;;;;16.77;41.86;100721.78;4421908;32;35279;-47
2021/10/18 11:50:43;;;;;;;11.85;6.80;;;;;;;16.79;41.35;100729.66;4408395;32;33737;-47
2021/10/18 11:53:17;;;;;;;12.37;7.45;;;;;;;17.07;39.38;100722.34;4421962;32;34806;-49
2021/10/18 11:55:51;;;;;;;11.85;8.18;;;;;;;16.93;40.17;100718.09;4407936;32;35449;-47
2021/10/18 11:58:27;;;;;;;13.55;7.50;;;;;;;17.02;40.99;100714.47;4408147;32;35172;-49
2021/10/18 12:01:19;;;;;;;12.50;8.02;;;;;;;17.10;40.53;100719.66;4418901;32;90427;-47
2021/10/18 12:03:46;;;;;;;14.87;6.90;;;;;;;17.01;40.08;100723.28;4421717;32;33685;-48
2021/10/18 12:06:14;;;;;;;9.63;6.78;;;;;;;16.98;40.35;100730.31;4421553;32;35064;-48
2021/10/18 12:08:45;;;;;;;14.02;7.43;;;;;;;16.89;39.35;100734.78;4407727;32;35140;-49
2021/10/18 12:11:13;;;;;;;10.38;7.50;;;;;;;16.79;39.79;100724.38;4421538;32;34487;-48
2021/10/18 12:13:42;;;;;;;11.35;6.87;;;;;;;16.73;40.53;100722.72;4421737;32;34108;-47
2021/10/18 12:16:12;;;;;;;9.20;6.68;;;;;;;16.32;41.88;100718.69;4407801;32;34818;-49
2021/10/18 12:18:42;;;;;;;11.57;7.68;;;;;;;16.65;41.20;100726.28;4421677;32;35263;-47
2021/10/18 12:21:18;;;;;;;11.27;6.55;;;;;;;16.52;40.91;100711.56;4421757;32;33405;-47
2021/10/18 12:23:57;;;;;;;12.32;7.85;;;;;;;16.77;40.53;100710.41;4423663;32;34382;-48
2021/10/18 12:26:28;;;;;;;17.58;12.25;;;;;;;16.71;40.85;100711.31;4409657;32;35625;-49
2021/10/18 12:29:12;;;;;;;9.05;7.00;;;;;;;16.67;41.23;100714.87;4423406;32;34668;-48
2021/10/18 12:31:51;;;;;;;13.65;7.22;;;;;;;16.47;41.31;100721.19;4423803;32;33452;-47
2021/10/18 12:34:21;;;;;;;12.80;6.93;;;;;;;16.59;40.53;100719.34;4423589;32;33879;-48
2021/10/18 12:36:56;;;;;;;11.18;7.82;;;;;;;16.57;40.04;100718.47;4423342;32;34436;-47
2021/10/18 12:39:42;;;;;;;9.68;6.72;;;;;;;16.62;40.26;100710.56;4423516;32;34798;-47